createdAt,value
2022-11-21T00:08:16.456Z,96670.97
2022-11-21T00:18:18.018Z,96664.16
2022-11-21T00:28:19.503Z,96660.06
2022-11-21T00:38:21.005Z,96663.59
2022-11-21T00:48:22.469Z,96677.84
2022-11-21T00:58:23.929Z,96668.91
2022-11-21T01:08:25.355Z,96676.81
2022-11-21T01:18:26.788Z,96678.81
2022-11-21T01:28:28.284Z,96676.94
2022-11-21T01:38:29.740Z,96669.72
2022-11-21T01:49:08.735Z,96656.63
2022-11-21T01:59:15.929Z,96646.34
2022-11-21T02:09:18.624Z,96625.38
2022-11-21T02:19:27.937Z,96618.25
2022-11-21T02:29:30.593Z,96627.75
2022-11-21T02:39:35.401Z,96622.31
2022-11-21T02:49:58.035Z,96611.47
2022-11-21T02:59:59.498Z,96600.13
2022-11-21T03:10:01.001Z,96597.00
2022-11-21T03:20:02.528Z,96593.84
2022-11-21T03:30:04.469Z,96587.91
2022-11-21T03:40:06.761Z,96577.16
2022-11-21T03:50:08.619Z,96577.19
2022-11-21T04:00:10.694Z,96584.81
2022-11-21T04:10:12.183Z,96586.44
2022-11-21T04:20:13.997Z,96578.31
2022-11-21T04:30:15.698Z,96574.31
2022-11-21T04:40:17.649Z,96590.84
2022-11-21T04:50:20.261Z,96587.84
2022-11-21T05:00:24.342Z,96586.59
2022-11-21T05:10:26.261Z,96584.28
2022-11-21T05:20:27.772Z,96588.34
2022-11-21T05:30:29.304Z,96571.88
2022-11-21T05:40:30.770Z,96554.66
2022-11-21T05:50:32.209Z,96552.22
2022-11-21T06:00:33.671Z,96555.88
2022-11-21T06:10:35.265Z,96546.19
2022-11-21T06:20:36.721Z,96541.50
2022-11-21T06:30:38.646Z,96544.56
2022-11-21T06:40:40.742Z,96554.34
2022-11-21T06:50:42.254Z,96566.25
2022-11-21T07:00:44.389Z,96573.66
2022-11-21T07:11:10.214Z,96585.28
2022-11-21T07:21:08.496Z,96598.63
2022-11-21T07:31:13.920Z,96596.28
2022-11-21T07:41:15.844Z,96597.47
2022-11-21T07:51:17.307Z,96595.19
2022-11-21T08:01:18.850Z,96591.06
2022-11-21T08:11:20.529Z,96598.50
2022-11-21T08:21:22.025Z,96601.38
2022-11-21T08:31:23.620Z,96614.00
2022-11-21T08:41:43.743Z,96609.53
2022-11-21T08:51:49.233Z,96611.88
2022-11-21T09:01:52.807Z,96618.31
2022-11-21T09:11:54.385Z,96622.50
2022-11-21T09:21:56.362Z,96618.75
2022-11-21T09:31:57.816Z,96607.34
2022-11-21T09:42:09.926Z,96606.28
2022-11-21T09:52:15.629Z,96594.84
2022-11-21T10:02:19.528Z,96602.31
2022-11-21T10:12:58.747Z,96577.69
2022-11-21T10:23:37.770Z,96571.53
2022-11-21T10:33:40.473Z,96559.59
2022-11-21T10:44:17.830Z,96550.38
2022-11-21T10:54:34.276Z,96521.69
2022-11-21T11:04:47.282Z,96509.53
2022-11-21T11:14:54.815Z,96510.84
2022-11-21T11:25:00.477Z,96493.38
2022-11-21T11:35:21.426Z,96488.84
2022-11-21T11:45:49.181Z,96472.72
2022-11-21T11:55:58.380Z,96466.25
2022-11-21T12:06:09.143Z,96461.47
2022-11-21T12:16:14.364Z,96443.03
2022-11-21T12:26:37.419Z,96431.81
2022-11-21T12:36:59.934Z,96407.75
2022-11-21T12:47:22.915Z,96390.44
2022-11-21T12:57:38.012Z,96377.09
2022-11-21T13:07:41.188Z,96372.56
2022-11-21T13:18:07.756Z,96356.34
2022-11-21T13:28:18.601Z,96339.81
2022-11-21T13:38:20.080Z,96348.31
2022-11-21T13:48:24.525Z,96327.81
2022-11-21T13:58:41.139Z,96317.88
2022-11-21T14:08:43.826Z,96313.22
2022-11-21T14:18:47.170Z,96302.44
2022-11-21T14:28:48.865Z,96301.47
2022-11-21T14:39:28.918Z,96299.94
2022-11-21T14:49:16.882Z,96293.84
2022-11-21T14:59:25.462Z,96275.06
2022-11-21T15:20:09.951Z,96208.22
2022-11-21T15:30:12.925Z,96209.44
2022-11-21T15:40:19.850Z,96183.56
2022-11-21T15:50:24.625Z,96193.09
2022-11-21T16:00:26.108Z,96177.69
2022-11-21T16:10:28.205Z,96167.72
2022-11-21T16:20:29.777Z,96159.88
2022-11-21T16:30:31.215Z,96134.72
2022-11-21T16:40:32.641Z,96134.44
2022-11-21T16:50:34.172Z,96126.03
2022-11-21T17:00:36.742Z,96109.25
2022-11-21T17:10:38.190Z,96102.41
2022-11-21T17:20:39.704Z,96085.13
2022-11-21T17:30:44.180Z,96075.16
2022-11-21T17:40:45.659Z,96044.25
2022-11-21T17:50:47.132Z,96035.31
2022-11-21T18:00:53.943Z,96028.25
2022-11-21T18:10:55.477Z,96003.88
2022-11-21T18:21:08.810Z,95997.56
2022-11-21T18:31:11.564Z,95990.19
2022-11-21T18:41:16.003Z,95977.09
2022-11-21T18:51:26.345Z,95968.44
2022-11-21T19:01:29.254Z,95940.97
2022-11-21T19:11:30.940Z,95948.28
2022-11-21T19:21:35.940Z,95925.47
2022-11-21T19:31:43.096Z,95905.91
2022-11-21T19:41:50.433Z,95883.91
2022-11-21T19:51:51.883Z,95865.84
2022-11-21T20:01:53.724Z,95864.75
2022-11-21T20:11:55.221Z,95852.03
2022-11-21T20:21:56.794Z,95842.44
2022-11-21T20:31:59.272Z,95824.47
2022-11-21T20:42:01.682Z,95814.50
2022-11-21T21:02:24.768Z,95818.75
2022-11-21T21:12:27.677Z,95791.31
2022-11-21T21:22:29.217Z,95776.69
2022-11-21T21:32:30.666Z,95782.41
2022-11-21T21:42:32.210Z,95774.59
2022-11-21T21:52:33.707Z,95771.94
2022-11-21T22:02:35.696Z,95758.91
2022-11-21T22:12:42.561Z,95756.81
2022-11-21T22:22:45.375Z,95743.22
2022-11-21T22:32:47.024Z,95762.53
2022-11-21T22:42:48.491Z,95745.03
2022-11-21T22:52:50.044Z,95746.59
2022-11-21T23:02:51.628Z,95753.34
2022-11-21T23:12:53.355Z,95758.53
2022-11-21T23:22:56.445Z,95784.41
2022-11-21T23:32:57.955Z,95771.34
2022-11-21T23:42:59.410Z,95751.97
2022-11-21T23:53:00.989Z,95739.44
